createdAt,value
2018-06-14T00:02:17.454Z,100353.39
2018-06-14T00:04:47.378Z,100351.53
2018-06-14T00:07:17.310Z,100350.91
2018-06-14T00:09:49.278Z,100347.77
2018-06-14T00:12:19.918Z,100339.59
2018-06-14T00:14:50.358Z,100336.16
2018-06-14T00:17:20.311Z,100334.66
2018-06-14T00:19:48.058Z,100332.89
2018-06-14T00:22:19.925Z,100338.10
2018-06-14T00:24:49.034Z,100333.94
2018-06-14T00:27:21.422Z,100330.91
2018-06-14T00:29:48.389Z,100327.11
2018-06-14T00:32:15.333Z,100333.13
2018-06-14T00:34:50.697Z,100327.28
2018-06-14T00:37:19.394Z,100333.53
2018-06-14T00:39:49.111Z,100329.14
2018-06-14T00:42:16.969Z,100331.98
2018-06-14T00:44:49.074Z,100332.31
2018-06-14T00:47:18.996Z,100332.35
2018-06-14T00:49:49.955Z,100324.22
2018-06-14T00:52:17.433Z,100326.80
2018-06-14T00:54:45.873Z,100326.20
2018-06-14T00:57:24.230Z,100324.98
2018-06-14T00:59:51.957Z,100317.44
2018-06-14T01:02:19.909Z,100326.57
2018-06-14T01:04:50.043Z,100323.67
2018-06-14T01:07:16.974Z,100320.02
2018-06-14T01:09:43.949Z,100324.80
2018-06-14T01:12:11.015Z,100320.91
2018-06-14T01:14:38.442Z,100316.53
2018-06-14T01:17:11.554Z,100321.01
2018-06-14T01:19:39.450Z,100313.28
2018-06-14T01:22:06.913Z,100313.90
2018-06-14T01:24:36.850Z,100315.05
2018-06-14T01:27:04.043Z,100315.48
2018-06-14T01:29:35.977Z,100313.00
2018-06-14T01:32:07.962Z,100312.91
2018-06-14T01:34:37.486Z,100311.28
2018-06-14T01:37:04.476Z,100307.98
2018-06-14T01:39:33.464Z,100316.75
2018-06-14T01:42:09.514Z,100308.84
2018-06-14T01:44:36.462Z,100309.33
2018-06-14T01:47:03.975Z,100302.60
2018-06-14T01:49:30.867Z,100300.11
2018-06-14T01:51:57.854Z,100304.56
2018-06-14T01:54:28.114Z,100310.70
2018-06-14T01:57:02.510Z,100316.72
2018-06-14T01:59:35.389Z,100314.06
2018-06-14T02:02:08.305Z,100315.37
2018-06-14T02:04:36.297Z,100316.19
2018-06-14T02:07:04.298Z,100317.81
2018-06-14T02:09:31.946Z,100314.42
2018-06-14T02:12:00.554Z,100319.66
2018-06-14T02:14:35.074Z,100309.21
2018-06-14T02:17:04.090Z,100310.52
2018-06-14T02:19:35.177Z,100309.99
2018-06-14T02:22:05.062Z,100308.11
2018-06-14T02:24:33.086Z,100312.40
2018-06-14T02:27:01.038Z,100311.55
2018-06-14T02:29:29.527Z,100315.91
2018-06-14T02:31:57.990Z,100315.34
2018-06-14T02:34:25.502Z,100312.89
2018-06-14T02:36:52.458Z,100320.62
2018-06-14T02:39:21.068Z,100321.57
2018-06-14T02:41:50.947Z,100324.66
2018-06-14T02:44:17.905Z,100321.67
2018-06-14T02:46:45.491Z,100318.66
2018-06-14T02:49:12.971Z,100317.52
2018-06-14T02:51:46.039Z,100313.81
2018-06-14T02:54:19.271Z,100316.25
2018-06-14T02:56:47.055Z,100312.61
2018-06-14T02:59:14.515Z,100318.98
2018-06-14T03:01:41.950Z,100320.51
2018-06-14T03:04:08.850Z,100322.25
2018-06-14T03:06:37.838Z,100328.97
2018-06-14T03:09:08.385Z,100323.88
2018-06-14T03:11:35.310Z,100320.30
2018-06-14T03:14:10.706Z,100318.80
2018-06-14T03:16:38.520Z,100318.48
2018-06-14T03:19:07.398Z,100319.61
2018-06-14T03:21:35.073Z,100314.08
2018-06-14T03:24:03.522Z,100316.53
2018-06-14T03:26:32.167Z,100319.93
2018-06-14T03:28:59.106Z,100324.36
2018-06-14T03:31:27.078Z,100323.48
2018-06-14T03:34:07.515Z,100328.80
2018-06-14T03:36:35.008Z,100325.93
2018-06-14T03:39:06.174Z,100330.99
2018-06-14T03:41:37.133Z,100329.22
2018-06-14T03:44:06.038Z,100327.52
2018-06-14T03:46:35.487Z,100327.23
2018-06-14T03:49:02.438Z,100320.82
2018-06-14T03:51:32.132Z,100326.64
2018-06-14T03:53:59.090Z,100326.73
2018-06-14T03:56:33.111Z,100323.70
2018-06-14T03:59:01.471Z,100330.32
2018-06-14T04:04:29.022Z,100333.26
2018-06-14T04:07:00.931Z,100326.10
2018-06-14T04:09:32.534Z,100327.80
2018-06-14T04:12:01.557Z,100332.97
2018-06-14T04:14:47.590Z,100335.65
2018-06-14T04:17:14.526Z,100331.94
2018-06-14T04:19:41.469Z,100332.73
2018-06-14T04:22:10.067Z,100333.92
2018-06-14T04:24:40.007Z,100329.50
2018-06-14T04:27:06.930Z,100321.24
2018-06-14T04:29:35.539Z,100327.48
2018-06-14T04:32:02.483Z,100322.44
2018-06-14T04:34:29.475Z,100318.78
2018-06-14T04:36:56.430Z,100312.37
2018-06-14T04:39:25.234Z,100311.60
2018-06-14T04:41:52.047Z,100314.23
2018-06-14T04:44:20.067Z,100318.20
2018-06-14T04:46:47.026Z,100315.94
2018-06-14T04:49:13.993Z,100318.92
2018-06-14T04:51:42.362Z,100314.72
2018-06-14T04:54:11.090Z,100322.98
2018-06-14T04:56:39.086Z,100322.81
2018-06-14T04:59:05.990Z,100318.97
2018-06-14T05:01:33.589Z,100321.07
2018-06-14T05:04:01.042Z,100322.69
2018-06-14T05:06:29.042Z,100316.36
2018-06-14T05:08:58.959Z,100320.76
2018-06-14T05:11:29.608Z,100313.12
2018-06-14T05:14:02.203Z,100319.09
2018-06-14T05:16:29.145Z,100316.73
2018-06-14T05:18:57.125Z,100320.45
2018-06-14T05:21:24.084Z,100320.98
2018-06-14T05:23:57.814Z,100325.36
2018-06-14T05:26:24.731Z,100327.99
2018-06-14T05:28:53.721Z,100327.08
2018-06-14T05:31:25.945Z,100331.27
2018-06-14T05:33:56.897Z,100330.69
2018-06-14T05:36:23.814Z,100333.16
2018-06-14T05:38:56.657Z,100334.27
2018-06-14T05:41:24.656Z,100335.31
2018-06-14T05:43:55.185Z,100337.59
2018-06-14T05:46:22.191Z,100341.55
2018-06-14T05:48:50.167Z,100336.08
2018-06-14T05:51:24.143Z,100335.08
2018-06-14T05:53:51.617Z,100333.98
2018-06-14T05:56:20.199Z,100344.59
2018-06-14T05:58:47.114Z,100338.04
2018-06-14T06:01:15.694Z,100345.52
2018-06-14T06:03:43.678Z,100336.59
2018-06-14T06:06:11.068Z,100336.94
2018-06-14T06:08:39.546Z,100329.77
2018-06-14T06:11:10.538Z,100328.34
2018-06-14T06:13:44.402Z,100331.47
2018-06-14T06:16:11.342Z,100327.12
2018-06-14T06:18:40.118Z,100324.61
2018-06-14T06:21:07.082Z,100324.35
2018-06-14T06:23:34.126Z,100323.28
2018-06-14T06:26:01.045Z,100324.98
2018-06-14T06:28:28.712Z,100325.64
2018-06-14T06:30:55.606Z,100323.50
2018-06-14T06:33:23.133Z,100319.63
2018-06-14T06:35:51.126Z,100324.38
2018-06-14T06:38:21.115Z,100319.84
2018-06-14T06:40:52.685Z,100320.78
2018-06-14T06:43:26.906Z,100318.35
2018-06-14T06:45:53.850Z,100315.34
2018-06-14T06:48:21.630Z,100310.76
2018-06-14T06:50:48.654Z,100316.26
2018-06-14T06:53:15.595Z,100316.98
2018-06-14T06:55:42.506Z,100318.62
2018-06-14T06:58:10.170Z,100311.89
2018-06-14T07:00:40.827Z,100322.17
2018-06-14T07:03:08.166Z,100323.04
2018-06-14T07:05:35.167Z,100328.17
2018-06-14T07:08:05.092Z,100322.98
2018-06-14T07:10:32.018Z,100326.88
2018-06-14T07:12:59.714Z,100323.41
2018-06-14T07:15:29.122Z,100322.01
2018-06-14T07:18:13.810Z,100328.71
2018-06-14T07:20:40.766Z,100327.02
2018-06-14T07:23:09.669Z,100323.80
2018-06-14T07:25:37.102Z,100323.63
2018-06-14T07:28:04.710Z,100323.77
2018-06-14T07:30:31.646Z,100325.86
2018-06-14T07:33:00.259Z,100323.11
2018-06-14T07:35:30.230Z,100326.38
2018-06-14T07:37:57.142Z,100323.09
2018-06-14T07:40:24.834Z,100327.20
2018-06-14T07:42:56.689Z,100324.19
2018-06-14T07:45:23.638Z,100324.60
2018-06-14T07:47:51.205Z,100321.45
2018-06-14T07:50:24.318Z,100321.20
2018-06-14T07:52:52.194Z,100327.02
2018-06-14T07:55:19.206Z,100320.75
2018-06-14T07:57:47.638Z,100318.09
2018-06-14T08:00:14.577Z,100329.70
2018-06-14T08:02:44.538Z,100329.43
2018-06-14T08:05:12.207Z,100328.57
2018-06-14T08:07:44.277Z,100327.27
2018-06-14T08:10:13.199Z,100324.35
2018-06-14T08:12:40.690Z,100331.72
2018-06-14T08:15:08.264Z,100323.19
2018-06-14T08:17:35.686Z,100323.49
2018-06-14T08:20:03.165Z,100327.03
2018-06-14T08:22:32.699Z,100328.71
2018-06-14T08:24:59.630Z,100327.77
2018-06-14T08:27:28.242Z,100327.57
2018-06-14T08:29:56.434Z,100327.89
2018-06-14T08:32:25.238Z,100321.55
2018-06-14T08:34:52.190Z,100325.97
2018-06-14T08:37:19.211Z,100324.39
2018-06-14T08:39:47.006Z,100320.56
2018-06-14T08:42:14.665Z,100322.39
2018-06-14T08:44:43.189Z,100320.08
2018-06-14T08:47:11.170Z,100322.53
2018-06-14T08:49:38.131Z,100323.91
2018-06-14T08:52:05.092Z,100321.87
2018-06-14T08:54:33.920Z,100321.95
2018-06-14T08:57:05.946Z,100328.84
2018-06-14T08:59:33.830Z,100325.05
2018-06-14T09:02:02.826Z,100318.93
2018-06-14T09:04:30.723Z,100323.62
2018-06-14T09:06:57.686Z,100316.50
2018-06-14T09:09:25.267Z,100317.13
2018-06-14T09:11:53.250Z,100316.13
2018-06-14T09:14:25.031Z,100311.34
2018-06-14T09:16:53.698Z,100310.70
2018-06-14T09:19:20.692Z,100306.14
2018-06-14T09:21:47.713Z,100306.66
2018-06-14T09:24:14.571Z,100305.84
2018-06-14T09:26:41.613Z,100300.77
2018-06-14T09:29:08.571Z,100298.39
2018-06-14T09:31:36.562Z,100297.11
2018-06-14T09:34:04.267Z,100301.98
2018-06-14T09:36:32.378Z,100292.51
2018-06-14T09:39:00.223Z,100298.14
2018-06-14T09:41:27.791Z,100295.02
2018-06-14T09:43:54.733Z,100298.66
2018-06-14T09:46:21.577Z,100303.47
2018-06-14T09:48:53.686Z,100302.02
2018-06-14T09:51:20.614Z,100293.25
2018-06-14T09:53:47.563Z,100303.48
2018-06-14T09:56:15.275Z,100301.45
2018-06-14T09:58:42.219Z,100298.75
2018-06-14T10:01:09.154Z,100302.50
2018-06-14T10:03:36.754Z,100303.64
2018-06-14T10:06:03.841Z,100303.52
2018-06-14T10:08:30.774Z,100306.19
2018-06-14T10:10:57.730Z,100306.91
2018-06-14T10:13:24.670Z,100311.37
2018-06-14T10:15:51.609Z,100307.42
2018-06-14T10:18:19.397Z,100304.63
2018-06-14T10:20:49.370Z,100310.44
2018-06-14T10:23:16.314Z,100309.63
2018-06-14T10:25:43.777Z,100312.09
2018-06-14T10:28:10.714Z,100312.03
2018-06-14T10:30:37.650Z,100315.73
2018-06-14T10:33:08.018Z,100307.80
2018-06-14T10:35:35.772Z,100301.67
2018-06-14T10:38:05.738Z,100304.75
2018-06-14T10:40:32.697Z,100298.16
2018-06-14T10:43:04.027Z,100293.77
2018-06-14T10:45:32.534Z,100288.16
2018-06-14T10:47:59.567Z,100293.99
2018-06-14T10:50:26.721Z,100293.88
2018-06-14T10:52:53.638Z,100294.82
2018-06-14T10:55:20.562Z,100288.80
2018-06-14T10:57:55.303Z,100289.20
2018-06-14T11:00:22.761Z,100289.33
2018-06-14T11:02:49.729Z,100280.00
2018-06-14T11:05:16.707Z,100287.08
2018-06-14T11:07:43.637Z,100283.91
2018-06-14T11:10:10.623Z,100288.14
2018-06-14T11:12:39.620Z,100286.81
2018-06-14T11:15:08.698Z,100295.41
2018-06-14T11:17:40.605Z,100292.80
2018-06-14T11:20:10.535Z,100294.94
2018-06-14T11:22:37.396Z,100292.39
2018-06-14T11:25:05.350Z,100289.38
2018-06-14T11:27:32.827Z,100288.84
2018-06-14T11:30:00.311Z,100284.75
2018-06-14T11:32:29.214Z,100287.70
2018-06-14T11:34:56.211Z,100279.33
2018-06-14T11:37:25.290Z,100279.63
2018-06-14T11:39:52.286Z,100278.28
2018-06-14T11:42:19.856Z,100281.03
2018-06-14T11:44:47.788Z,100274.73
2018-06-14T11:47:18.411Z,100273.23
2018-06-14T11:49:46.435Z,100273.80
2018-06-14T11:52:13.349Z,100280.27
2018-06-14T11:54:42.306Z,100271.38
2018-06-14T11:57:09.880Z,100276.80
2018-06-14T11:59:36.881Z,100272.03
2018-06-14T12:02:03.858Z,100273.05
2018-06-14T12:04:30.849Z,100267.75
2018-06-14T12:06:57.766Z,100269.36
2018-06-14T12:09:27.373Z,100266.61
2018-06-14T12:11:54.342Z,100260.92
2018-06-14T12:14:26.318Z,100256.46
2018-06-14T12:16:55.818Z,100258.16
2018-06-14T12:19:24.858Z,100253.63
2018-06-14T12:21:56.920Z,100252.16
2018-06-14T12:24:24.835Z,100246.17
2018-06-14T12:26:52.366Z,100243.41
2018-06-14T12:29:21.369Z,100241.30
2018-06-14T12:31:48.391Z,100241.36
2018-06-14T12:34:15.306Z,100235.26
2018-06-14T12:36:47.354Z,100236.73
2018-06-14T12:39:14.347Z,100234.02
2018-06-14T12:41:44.869Z,100233.80
2018-06-14T12:44:11.837Z,100223.27
2018-06-14T12:46:38.899Z,100220.41
2018-06-14T12:49:05.837Z,100223.78
2018-06-14T12:51:34.462Z,100228.09
2018-06-14T12:54:04.054Z,100222.61
2018-06-14T12:56:31.823Z,100217.56
2018-06-14T12:58:58.695Z,100213.35
2018-06-14T13:01:26.409Z,100223.33
2018-06-14T13:03:53.838Z,100216.72
2018-06-14T13:06:20.765Z,100220.28
2018-06-14T13:08:47.767Z,100215.31
2018-06-14T13:11:14.701Z,100212.97
2018-06-14T13:13:41.678Z,100213.83
2018-06-14T13:16:08.607Z,100212.27
2018-06-14T13:18:36.402Z,100206.66
2018-06-14T13:21:03.515Z,100203.23
2018-06-14T13:23:31.434Z,100206.13
2018-06-14T13:26:01.390Z,100202.51
2018-06-14T13:28:29.886Z,100197.19
2018-06-14T13:30:56.892Z,100195.56
2018-06-14T13:33:24.418Z,100193.98
2018-06-14T13:35:52.918Z,100190.75
2018-06-14T13:38:19.830Z,100196.89
2018-06-14T13:40:47.410Z,100194.52
2018-06-14T13:43:14.358Z,100184.94
2018-06-14T13:45:41.350Z,100178.39
2018-06-14T13:48:10.329Z,100174.11
2018-06-14T13:50:40.318Z,100175.53
2018-06-14T13:53:08.107Z,100172.61
2018-06-14T13:55:37.026Z,100167.39
2018-06-14T13:58:06.905Z,100169.70
2018-06-14T14:00:33.822Z,100177.36
2018-06-14T14:03:00.774Z,100175.91
2018-06-14T14:05:27.767Z,100167.44
2018-06-14T14:07:54.733Z,100165.95
2018-06-14T14:10:21.691Z,100162.51
2018-06-14T14:12:48.609Z,100165.70
2018-06-14T14:15:15.564Z,100160.70
2018-06-14T14:17:42.526Z,100164.31
2018-06-14T14:20:11.522Z,100152.72
2018-06-14T14:22:39.420Z,100150.61
2018-06-14T14:25:06.379Z,100157.88
2018-06-14T14:27:33.455Z,100152.21
2018-06-14T14:30:00.400Z,100148.30
2018-06-14T14:32:27.303Z,100147.67
2018-06-14T14:34:54.223Z,100149.22
2018-06-14T14:37:21.967Z,100143.36
2018-06-14T14:39:48.925Z,100146.30
2018-06-14T14:42:15.898Z,100138.84
2018-06-14T14:44:43.462Z,100136.43
2018-06-14T14:47:10.418Z,100133.42
2018-06-14T14:49:37.299Z,100134.09
2018-06-14T14:52:04.210Z,100132.53
2018-06-14T14:54:31.174Z,100135.69
2018-06-14T14:56:58.170Z,100130.33
2018-06-14T14:59:25.099Z,100129.52
2018-06-14T15:01:52.078Z,100139.23
2018-06-14T15:04:18.985Z,100129.14
2018-06-14T15:06:46.890Z,100136.50
2018-06-14T15:09:13.856Z,100131.44
2018-06-14T15:11:40.810Z,100133.84
2018-06-14T15:14:07.766Z,100133.69
2018-06-14T15:16:35.434Z,100133.67
2018-06-14T15:19:02.388Z,100131.02
2018-06-14T15:21:29.276Z,100126.30
2018-06-14T15:23:57.234Z,100126.06
2018-06-14T15:26:24.247Z,100126.45
2018-06-14T15:28:51.191Z,100131.55
2018-06-14T15:31:18.106Z,100133.52
2018-06-14T15:33:50.479Z,100134.08
2018-06-14T15:36:17.330Z,100133.06
2018-06-14T15:38:44.282Z,100141.11
2018-06-14T15:41:11.251Z,100139.50
2018-06-14T15:43:38.221Z,100131.28
2018-06-14T15:46:05.189Z,100133.36
2018-06-14T15:48:32.138Z,100132.70
2018-06-14T15:50:59.085Z,100128.26
2018-06-14T15:53:26.050Z,100118.75
2018-06-14T15:56:08.987Z,100122.86
2018-06-14T15:58:35.966Z,100126.19
2018-06-14T16:01:02.918Z,100116.91
2018-06-14T16:03:29.870Z,100121.48
2018-06-14T16:05:56.834Z,100117.16
2018-06-14T16:08:25.501Z,100116.80
2018-06-14T16:10:52.753Z,100110.12
2018-06-14T16:13:20.250Z,100106.97
2018-06-14T16:15:47.226Z,100100.91
2018-06-14T16:18:15.283Z,100103.12
2018-06-14T16:20:42.254Z,100108.78
2018-06-14T16:23:10.226Z,100114.20
2018-06-14T16:25:37.186Z,100109.98
2018-06-14T16:28:04.385Z,100114.92
2018-06-14T16:30:31.309Z,100120.43
2018-06-14T16:32:58.226Z,100119.47
2018-06-14T16:35:25.113Z,100118.13
2018-06-14T16:37:55.053Z,100119.48
2018-06-14T16:40:23.048Z,100117.28
2018-06-14T16:42:49.991Z,100119.58
2018-06-14T16:45:16.950Z,100114.70
2018-06-14T16:47:43.923Z,100111.83
2018-06-14T16:50:10.866Z,100108.37
2018-06-14T16:52:38.322Z,100112.63
2018-06-14T16:55:05.398Z,100113.67
2018-06-14T16:57:32.326Z,100116.55
2018-06-14T17:00:00.054Z,100116.46
2018-06-14T17:02:26.982Z,100115.37
2018-06-14T17:04:53.928Z,100120.83
2018-06-14T17:07:21.522Z,100113.24
2018-06-14T17:09:49.494Z,100114.03
2018-06-14T17:12:17.970Z,100113.57
2018-06-14T17:14:44.955Z,100118.34
2018-06-14T17:17:11.903Z,100120.98
2018-06-14T17:19:38.866Z,100115.37
2018-06-14T17:22:05.851Z,100115.42
2018-06-14T17:24:35.478Z,100121.84
2018-06-14T17:27:03.531Z,100121.38
2018-06-14T17:29:30.466Z,100118.55
2018-06-14T17:31:58.474Z,100126.26
2018-06-14T17:34:26.073Z,100121.45
2018-06-14T17:36:52.983Z,100127.92
2018-06-14T17:39:20.557Z,100124.44
2018-06-14T17:41:48.590Z,100127.37
2018-06-14T17:44:16.082Z,100125.88
2018-06-14T17:46:44.538Z,100126.84
2018-06-14T17:49:12.047Z,100129.31
2018-06-14T17:51:40.061Z,100122.98
2018-06-14T17:54:07.102Z,100130.56
2018-06-14T17:56:34.556Z,100129.84
2018-06-14T17:59:02.029Z,100130.81
2018-06-14T18:01:29.625Z,100136.95
2018-06-14T18:03:59.630Z,100147.70
2018-06-14T18:06:26.622Z,100143.29
2018-06-14T18:08:53.709Z,100145.43
2018-06-14T18:11:22.593Z,100152.48
2018-06-14T18:13:50.058Z,100152.81
2018-06-14T18:16:18.543Z,100154.47
2018-06-14T18:18:47.072Z,100150.78
2018-06-14T18:21:14.035Z,100151.00
2018-06-14T18:23:43.155Z,100159.17
2018-06-14T18:26:11.098Z,100159.36
2018-06-14T18:28:38.113Z,100159.09
2018-06-14T18:31:05.642Z,100158.55
2018-06-14T18:33:32.590Z,100157.45
2018-06-14T18:36:01.063Z,100160.99
2018-06-14T18:38:29.573Z,100158.98
2018-06-14T18:40:57.955Z,100161.53
2018-06-14T18:43:24.906Z,100164.10
2018-06-14T18:45:51.878Z,100167.85
2018-06-14T18:48:18.833Z,100161.56
2018-06-14T18:50:45.749Z,100171.41
2018-06-14T18:53:12.718Z,100166.98
2018-06-14T18:55:40.192Z,100173.56
2018-06-14T18:58:09.258Z,100173.05
2018-06-14T19:00:37.225Z,100171.00
2018-06-14T19:03:04.182Z,100177.05
2018-06-14T19:05:31.166Z,100181.00
2018-06-14T19:07:58.027Z,100179.30
2018-06-14T19:10:26.578Z,100182.59
2018-06-14T19:12:54.206Z,100182.70
2018-06-14T19:15:22.114Z,100187.91
2018-06-14T19:17:49.458Z,100185.78
2018-06-14T19:20:16.438Z,100191.45
2018-06-14T19:22:44.081Z,100194.70
2018-06-14T19:25:13.583Z,100200.34
2018-06-14T19:27:40.486Z,100196.20
2018-06-14T19:30:07.829Z,100199.10
2018-06-14T19:32:35.661Z,100200.84
2018-06-14T19:35:02.586Z,100202.33
2018-06-14T19:37:29.554Z,100217.41
2018-06-14T19:39:56.484Z,100214.47
2018-06-14T19:42:24.127Z,100217.69
2018-06-14T19:44:51.031Z,100221.33
2018-06-14T19:47:17.992Z,100219.97
2018-06-14T19:49:44.862Z,100218.64
2018-06-14T19:52:15.676Z,100230.71
2018-06-14T19:54:48.807Z,100225.88
2018-06-14T19:57:17.726Z,100231.97
2018-06-14T19:59:46.009Z,100237.80
2018-06-14T20:02:13.977Z,100246.33
2018-06-14T20:04:41.060Z,100245.66
2018-06-14T20:07:08.006Z,100244.73
2018-06-14T20:09:34.976Z,100250.42
2018-06-14T20:12:02.046Z,100253.77
2018-06-14T20:14:28.975Z,100258.42
2018-06-14T20:16:56.642Z,100260.31
2018-06-14T20:19:24.614Z,100264.92
2018-06-14T20:21:54.529Z,100262.42
2018-06-14T20:24:23.568Z,100267.95
2018-06-14T20:26:52.201Z,100271.23
2018-06-14T20:29:20.252Z,100270.52
2018-06-14T20:31:50.211Z,100271.48
2018-06-14T20:34:18.141Z,100267.45
2018-06-14T20:36:45.603Z,100269.23
2018-06-14T20:39:12.970Z,100274.03
2018-06-14T20:41:40.706Z,100274.48
2018-06-14T20:44:09.194Z,100271.91
2018-06-14T20:46:37.627Z,100272.02
2018-06-14T20:49:04.578Z,100267.71
2018-06-14T20:51:33.675Z,100274.69
2018-06-14T20:54:02.734Z,100276.41
2018-06-14T20:56:30.686Z,100273.39
2018-06-14T20:59:02.242Z,100276.05
2018-06-14T21:01:29.326Z,100276.91
2018-06-14T21:04:01.094Z,100275.44
2018-06-14T21:06:28.153Z,100278.57
2018-06-14T21:08:55.115Z,100279.56
2018-06-14T21:11:22.022Z,100282.36
2018-06-14T21:13:48.910Z,100284.83
2018-06-14T21:16:15.871Z,100280.98
2018-06-14T21:18:43.602Z,100290.64
2018-06-14T21:21:12.189Z,100287.84
2018-06-14T21:23:39.099Z,100296.12
2018-06-14T21:26:07.829Z,100296.59
2018-06-14T21:28:34.743Z,100297.72
2018-06-14T21:31:03.799Z,100298.41
2018-06-14T21:33:32.691Z,100301.16
2018-06-14T21:35:59.606Z,100303.20
2018-06-14T21:38:27.242Z,100298.75
2018-06-14T21:40:54.147Z,100300.87
2018-06-14T21:43:21.052Z,100296.33
2018-06-14T21:45:49.718Z,100300.08
2018-06-14T21:48:18.194Z,100294.98
2018-06-14T21:50:45.119Z,100298.13
2018-06-14T21:53:13.786Z,100291.58
2018-06-14T21:55:42.742Z,100294.78
2018-06-14T21:58:10.224Z,100298.84
2018-06-14T22:00:37.183Z,100305.11
2018-06-14T22:03:10.670Z,100295.63
2018-06-14T22:05:37.678Z,100292.33
2018-06-14T22:08:04.610Z,100291.52
2018-06-14T22:10:32.598Z,100293.70
2018-06-14T22:13:03.510Z,100298.13
2018-06-14T22:15:31.212Z,100301.58
2018-06-14T22:17:59.707Z,100298.22
2018-06-14T22:20:34.018Z,100296.02
2018-06-14T22:23:01.024Z,100306.04
2018-06-14T22:25:28.759Z,100305.88
2018-06-14T22:27:57.259Z,100300.05
2018-06-14T22:30:24.224Z,100309.75
2018-06-14T22:33:16.590Z,100305.03
2018-06-14T22:35:43.561Z,100315.43
2018-06-14T22:38:13.259Z,100310.33
2018-06-14T22:40:43.803Z,100308.69
2018-06-14T22:43:14.850Z,100309.62
2018-06-14T22:45:44.702Z,100305.64
2018-06-14T22:48:11.653Z,100306.47
2018-06-14T22:50:50.870Z,100298.70
2018-06-14T22:53:19.783Z,100299.13
2018-06-14T22:55:52.850Z,100298.81
2018-06-14T22:58:20.755Z,100305.08
2018-06-14T23:01:18.762Z,100295.27
2018-06-14T23:03:49.606Z,100293.67
2018-06-14T23:06:29.255Z,100297.20
2018-06-14T23:08:58.810Z,100302.75
2018-06-14T23:11:33.039Z,100308.53
2018-06-14T23:14:00.791Z,100313.22
2018-06-14T23:16:28.214Z,100319.94
2018-06-14T23:18:56.741Z,100320.04
2018-06-14T23:21:25.241Z,100321.19
2018-06-14T23:23:56.189Z,100317.56
2018-06-14T23:26:26.102Z,100317.12
2018-06-14T23:28:53.771Z,100310.19
2018-06-14T23:31:21.799Z,100306.55
2018-06-14T23:33:48.718Z,100305.22
2018-06-14T23:36:15.670Z,100303.99
2018-06-14T23:38:45.607Z,100301.99
2018-06-14T23:41:12.555Z,100297.76
2018-06-14T23:43:41.286Z,100298.94
2018-06-14T23:46:09.694Z,100296.77
2018-06-14T23:48:38.314Z,100291.13
2018-06-14T23:51:08.250Z,100296.55
2018-06-14T23:53:35.750Z,100299.80
2018-06-14T23:56:02.690Z,100304.28
2018-06-14T23:58:29.699Z,100314.20
